BMI18T EGCC-EGAA
Flight info
| Callsign | BMI18T |
|---|---|
| Flight time | 0h 34m |
| Altitude | 24000 |
| Route | ASMIM L975 WAL M146 IPSET P6 BELZU |
| Aircraft | A319/M-SDE3FGHIRWY/LB1 |
Departure
| Time | 2026-05-05 21:25 |
|---|---|
| Airport | Manchester Airport (EGCC) |
Arrival
| Time | 2026-05-05 22:00 |
|---|---|
| Airport | Belfast International Airport (EGAA) |
| Time | Latitude | Longitude | Altitude | Speed | Heading |
|---|---|---|---|---|---|
| 2026-05-05 20:54 | 53.36042 | -2.26889 | 258 ft | 0 kts | 315° |
| 2026-05-05 21:13 | 53.36039 | -2.26885 | 259 ft | 2 kts | 315° |
| 2026-05-05 21:14 | 53.36030 | -2.26864 | 259 ft | 2 kts | 299° |
| 2026-05-05 21:14 | 53.36023 | -2.26842 | 259 ft | 2 kts | 288° |
| 2026-05-05 21:14 | 53.36020 | -2.26816 | 258 ft | 2 kts | 275° |
| 2026-05-05 21:14 | 53.36020 | -2.26793 | 258 ft | 2 kts | 264° |
| 2026-05-05 21:15 | 53.36023 | -2.26768 | 259 ft | 2 kts | 252° |
| 2026-05-05 21:15 | 53.36029 | -2.26745 | 259 ft | 2 kts | 240° |
| 2026-05-05 21:15 | 53.36034 | -2.26732 | 259 ft | 0 kts | 232° |
| 2026-05-05 21:15 | 53.36037 | -2.26725 | 259 ft | 0 kts | 230° |
| 2026-05-05 21:17 | 53.36037 | -2.26726 | 258 ft | 0 kts | 230° |
| 2026-05-05 21:17 | 53.36010 | -2.26780 | 258 ft | 11 kts | 230° |
| 2026-05-05 21:17 | 53.35923 | -2.26815 | 258 ft | 15 kts | 187° |
| 2026-05-05 21:18 | 53.35849 | -2.26945 | 258 ft | 16 kts | 236° |
| 2026-05-05 21:18 | 53.35797 | -2.27084 | 258 ft | 16 kts | 235° |
| 2026-05-05 21:18 | 53.35726 | -2.27235 | 258 ft | 16 kts | 224° |
| 2026-05-05 21:18 | 53.35652 | -2.27372 | 258 ft | 16 kts | 233° |
| 2026-05-05 21:19 | 53.35589 | -2.27514 | 258 ft | 17 kts | 233° |
| 2026-05-05 21:19 | 53.35518 | -2.27662 | 258 ft | 17 kts | 230° |
| 2026-05-05 21:19 | 53.35456 | -2.27838 | 258 ft | 17 kts | 266° |
| 2026-05-05 21:19 | 53.35399 | -2.28012 | 258 ft | 17 kts | 224° |
| 2026-05-05 21:20 | 53.35312 | -2.28159 | 258 ft | 17 kts | 229° |
| 2026-05-05 21:20 | 53.35228 | -2.28315 | 258 ft | 17 kts | 227° |
| 2026-05-05 21:20 | 53.35148 | -2.28471 | 258 ft | 18 kts | 230° |
| 2026-05-05 21:20 | 53.35067 | -2.28642 | 258 ft | 18 kts | 232° |
| 2026-05-05 21:21 | 53.34983 | -2.28800 | 258 ft | 18 kts | 223° |
| 2026-05-05 21:21 | 53.34893 | -2.28953 | 258 ft | 18 kts | 229° |
| 2026-05-05 21:21 | 53.34829 | -2.29058 | 258 ft | 11 kts | 223° |
| 2026-05-05 21:21 | 53.34802 | -2.29074 | 258 ft | 0 kts | 187° |
| 2026-05-05 21:23 | 53.34771 | -2.29078 | 258 ft | 16 kts | 177° |
| 2026-05-05 21:23 | 53.34685 | -2.28932 | 258 ft | 18 kts | 76° |
| 2026-05-05 21:23 | 53.34713 | -2.28859 | 258 ft | 0 kts | 51° |
| 2026-05-05 21:24 | 53.34804 | -2.28669 | 259 ft | 58 kts | 50° |
| 2026-05-05 21:25 | 53.35227 | -2.27798 | 259 ft | 130 kts | 52° |
| 2026-05-05 21:25 | 53.35889 | -2.26423 | 617 ft | 156 kts | 52° |
| 2026-05-05 21:25 | 53.36545 | -2.25029 | 1427 ft | 151 kts | 53° |
| 2026-05-05 21:25 | 53.37198 | -2.23687 | 2231 ft | 149 kts | 54° |
| 2026-05-05 21:26 | 53.37886 | -2.22272 | 2789 ft | 164 kts | 53° |
| 2026-05-05 21:26 | 53.38866 | -2.21141 | 3423 ft | 183 kts | 19° |
| 2026-05-05 21:26 | 53.40205 | -2.21313 | 3911 ft | 207 kts | 341° |
| 2026-05-05 21:26 | 53.41432 | -2.22872 | 4335 ft | 230 kts | 308° |
| 2026-05-05 21:27 | 53.42290 | -2.25276 | 4795 ft | 249 kts | 295° |
| 2026-05-05 21:27 | 53.43070 | -2.28118 | 5059 ft | 273 kts | 292° |
| 2026-05-05 21:27 | 53.43832 | -2.30976 | 5379 ft | 282 kts | 293° |
| 2026-05-05 21:27 | 53.44677 | -2.34014 | 6216 ft | 286 kts | 293° |
| 2026-05-05 21:28 | 53.45557 | -2.36975 | 7149 ft | 286 kts | 293° |
| 2026-05-05 21:28 | 53.46454 | -2.39940 | 8029 ft | 287 kts | 289° |
| 2026-05-05 21:28 | 53.46950 | -2.43123 | 8961 ft | 276 kts | 267° |
| 2026-05-05 21:28 | 53.46755 | -2.46265 | 10076 ft | 264 kts | 259° |
| 2026-05-05 21:29 | 53.46408 | -2.49212 | 11266 ft | 254 kts | 258° |
| 2026-05-05 21:29 | 53.46084 | -2.52111 | 12137 ft | 256 kts | 257° |
| 2026-05-05 21:29 | 53.45741 | -2.55138 | 12760 ft | 267 kts | 257° |
| 2026-05-05 21:29 | 53.45402 | -2.58122 | 13162 ft | 283 kts | 257° |
| 2026-05-05 21:30 | 53.45034 | -2.61416 | 13872 ft | 288 kts | 257° |
| 2026-05-05 21:30 | 53.44667 | -2.64735 | 14721 ft | 289 kts | 257° |
| 2026-05-05 21:30 | 53.44385 | -2.67301 | 15355 ft | 289 kts | 256° |
| 2026-05-05 21:30 | 53.44032 | -2.70522 | 16122 ft | 290 kts | 256° |
| 2026-05-05 21:31 | 53.43662 | -2.73889 | 16898 ft | 292 kts | 256° |
| 2026-05-05 21:31 | 53.43284 | -2.77296 | 17642 ft | 294 kts | 256° |
| 2026-05-05 21:31 | 53.42905 | -2.80703 | 18365 ft | 295 kts | 256° |
| 2026-05-05 21:31 | 53.42520 | -2.84151 | 19084 ft | 296 kts | 256° |
| 2026-05-05 21:32 | 53.42132 | -2.87614 | 19781 ft | 298 kts | 256° |
| 2026-05-05 21:32 | 53.41765 | -2.90882 | 20421 ft | 299 kts | 256° |
| 2026-05-05 21:32 | 53.41375 | -2.94328 | 21075 ft | 301 kts | 256° |
| 2026-05-05 21:32 | 53.40982 | -2.97793 | 21553 ft | 307 kts | 256° |
| 2026-05-05 21:33 | 53.40565 | -3.01448 | 21771 ft | 320 kts | 256° |
| 2026-05-05 21:33 | 53.40131 | -3.05248 | 22002 ft | 332 kts | 256° |
| 2026-05-05 21:33 | 53.39909 | -3.09162 | 22384 ft | 343 kts | 268° |
| 2026-05-05 21:33 | 53.40382 | -3.13198 | 23143 ft | 350 kts | 281° |
| 2026-05-05 21:34 | 53.41492 | -3.16868 | 23707 ft | 352 kts | 295° |
| 2026-05-05 21:34 | 53.43133 | -3.20039 | 24020 ft | 357 kts | 303° |
| 2026-05-05 21:34 | 53.44938 | -3.23186 | 24048 ft | 375 kts | 304° |
| 2026-05-05 21:34 | 53.46820 | -3.26420 | 24053 ft | 391 kts | 304° |
| 2026-05-05 21:35 | 53.48777 | -3.29764 | 24057 ft | 405 kts | 305° |
| 2026-05-05 21:35 | 53.50662 | -3.32980 | 24056 ft | 411 kts | 305° |
| 2026-05-05 21:35 | 53.52692 | -3.36437 | 24058 ft | 413 kts | 305° |
| 2026-05-05 21:35 | 53.54762 | -3.39970 | 24058 ft | 413 kts | 305° |
| 2026-05-05 21:36 | 53.56749 | -3.43542 | 24058 ft | 409 kts | 302° |
| 2026-05-05 21:36 | 53.58614 | -3.47293 | 24059 ft | 406 kts | 299° |
| 2026-05-05 21:36 | 53.60326 | -3.51144 | 24060 ft | 410 kts | 297° |
| 2026-05-05 21:36 | 53.62022 | -3.55172 | 24060 ft | 420 kts | 297° |
| 2026-05-05 21:37 | 53.63752 | -3.59315 | 24059 ft | 430 kts | 297° |
| 2026-05-05 21:37 | 53.65517 | -3.63532 | 24060 ft | 437 kts | 297° |
| 2026-05-05 21:37 | 53.67291 | -3.67763 | 24062 ft | 438 kts | 296° |
| 2026-05-05 21:37 | 53.69090 | -3.72067 | 24064 ft | 438 kts | 296° |
| 2026-05-05 21:38 | 53.70848 | -3.76360 | 24074 ft | 444 kts | 304° |
| 2026-05-05 21:38 | 53.72668 | -3.80796 | 24060 ft | 456 kts | 305° |
| 2026-05-05 21:38 | 53.74573 | -3.85334 | 24045 ft | 467 kts | 305° |
| 2026-05-05 21:38 | 53.76498 | -3.89916 | 24033 ft | 476 kts | 305° |
| 2026-05-05 21:39 | 53.78465 | -3.94627 | 24025 ft | 480 kts | 305° |
| 2026-05-05 21:39 | 53.80456 | -3.99424 | 24020 ft | 481 kts | 305° |
| 2026-05-05 21:39 | 53.82410 | -4.04153 | 24017 ft | 481 kts | 305° |
| 2026-05-05 21:39 | 53.84373 | -4.08923 | 24016 ft | 481 kts | 305° |
| 2026-05-05 21:40 | 53.86356 | -4.13751 | 24014 ft | 481 kts | 305° |
| 2026-05-05 21:40 | 53.88289 | -4.18465 | 24014 ft | 481 kts | 305° |
| 2026-05-05 21:40 | 53.90228 | -4.23200 | 24014 ft | 481 kts | 305° |
| 2026-05-05 21:40 | 53.92155 | -4.27921 | 24014 ft | 481 kts | 305° |
| 2026-05-05 21:41 | 53.94112 | -4.32724 | 24013 ft | 481 kts | 305° |
| 2026-05-05 21:41 | 53.95407 | -4.35902 | 24013 ft | 481 kts | 305° |
| 2026-05-05 21:41 | 53.97983 | -4.42238 | 24013 ft | 481 kts | 305° |
| 2026-05-05 21:41 | 53.99954 | -4.47098 | 24013 ft | 481 kts | 305° |
| 2026-05-05 21:42 | 54.01934 | -4.51698 | 24013 ft | 481 kts | 309° |
| 2026-05-05 21:42 | 54.04143 | -4.56097 | 24014 ft | 481 kts | 312° |
| 2026-05-05 21:42 | 54.06446 | -4.60411 | 24013 ft | 481 kts | 313° |
| 2026-05-05 21:42 | 54.08796 | -4.64751 | 24013 ft | 481 kts | 313° |
| 2026-05-05 21:43 | 54.10688 | -4.68249 | 24013 ft | 481 kts | 312° |
| 2026-05-05 21:43 | 54.12956 | -4.72442 | 24013 ft | 481 kts | 312° |
| 2026-05-05 21:43 | 54.15113 | -4.76439 | 24013 ft | 481 kts | 312° |
| 2026-05-05 21:43 | 54.17378 | -4.80656 | 23931 ft | 476 kts | 312° |
| 2026-05-05 21:44 | 54.19644 | -4.84891 | 23298 ft | 470 kts | 312° |
| 2026-05-05 21:44 | 54.21874 | -4.89073 | 22278 ft | 467 kts | 312° |
| 2026-05-05 21:44 | 54.24083 | -4.93226 | 21329 ft | 462 kts | 312° |
| 2026-05-05 21:44 | 54.26286 | -4.97378 | 20469 ft | 456 kts | 312° |
| 2026-05-05 21:45 | 54.28494 | -5.01549 | 19613 ft | 450 kts | 312° |
| 2026-05-05 21:45 | 54.30631 | -5.05591 | 18776 ft | 445 kts | 312° |
| 2026-05-05 21:45 | 54.32019 | -5.08221 | 18233 ft | 442 kts | 312° |
| 2026-05-05 21:45 | 54.34820 | -5.13539 | 17143 ft | 435 kts | 312° |
| 2026-05-05 21:46 | 54.36196 | -5.16155 | 16610 ft | 431 kts | 312° |
| 2026-05-05 21:46 | 54.38881 | -5.21270 | 15789 ft | 426 kts | 312° |
| 2026-05-05 21:46 | 54.40899 | -5.25121 | 15246 ft | 423 kts | 312° |
| 2026-05-05 21:46 | 54.42933 | -5.29010 | 14717 ft | 420 kts | 312° |
| 2026-05-05 21:47 | 54.44264 | -5.31556 | 14376 ft | 418 kts | 312° |
| 2026-05-05 21:47 | 54.46941 | -5.36494 | 13730 ft | 414 kts | 314° |
| 2026-05-05 21:47 | 54.48953 | -5.40085 | 13260 ft | 411 kts | 314° |
| 2026-05-05 21:47 | 54.50332 | -5.42549 | 12937 ft | 410 kts | 313° |
| 2026-05-05 21:48 | 54.52408 | -5.48058 | 12303 ft | 406 kts | 292° |
| 2026-05-05 21:48 | 54.53072 | -5.52721 | 11849 ft | 395 kts | 276° |
| 2026-05-05 21:48 | 54.53126 | -5.57485 | 11396 ft | 383 kts | 269° |
| 2026-05-05 21:48 | 54.53070 | -5.60580 | 11090 ft | 376 kts | 268° |
| 2026-05-05 21:49 | 54.52961 | -5.65097 | 10630 ft | 366 kts | 267° |
| 2026-05-05 21:49 | 54.52846 | -5.69533 | 10169 ft | 357 kts | 267° |
| 2026-05-05 21:49 | 54.52735 | -5.73796 | 9715 ft | 350 kts | 267° |
| 2026-05-05 21:49 | 54.52625 | -5.77975 | 9294 ft | 341 kts | 267° |
| 2026-05-05 21:50 | 54.52515 | -5.82125 | 9067 ft | 328 kts | 267° |
| 2026-05-05 21:50 | 54.52411 | -5.86029 | 8852 ft | 315 kts | 267° |
| 2026-05-05 21:50 | 54.52311 | -5.89762 | 8648 ft | 304 kts | 267° |
| 2026-05-05 21:50 | 54.52214 | -5.93387 | 8452 ft | 293 kts | 267° |
| 2026-05-05 21:51 | 54.52119 | -5.96906 | 8261 ft | 283 kts | 267° |
| 2026-05-05 21:51 | 54.52027 | -6.00332 | 7957 ft | 278 kts | 267° |
| 2026-05-05 21:51 | 54.51935 | -6.03705 | 7567 ft | 277 kts | 267° |
| 2026-05-05 21:51 | 54.51842 | -6.07098 | 7180 ft | 276 kts | 267° |
| 2026-05-05 21:52 | 54.51657 | -6.13827 | 6420 ft | 273 kts | 267° |
| 2026-05-05 21:52 | 54.51564 | -6.17154 | 6043 ft | 271 kts | 267° |
| 2026-05-05 21:52 | 54.51472 | -6.20441 | 5671 ft | 270 kts | 267° |
| 2026-05-05 21:53 | 54.51380 | -6.23751 | 5295 ft | 268 kts | 267° |
| 2026-05-05 21:53 | 54.51374 | -6.26990 | 4926 ft | 267 kts | 273° |
| 2026-05-05 21:53 | 54.51512 | -6.30234 | 4559 ft | 265 kts | 275° |
| 2026-05-05 21:53 | 54.51680 | -6.33468 | 4191 ft | 264 kts | 275° |
| 2026-05-05 21:54 | 54.51871 | -6.36650 | 3825 ft | 263 kts | 281° |
| 2026-05-05 21:54 | 54.52649 | -6.39497 | 3557 ft | 256 kts | 309° |
| 2026-05-05 21:54 | 54.53821 | -6.41733 | 3501 ft | 243 kts | 314° |
| 2026-05-05 21:54 | 54.54996 | -6.43848 | 3450 ft | 229 kts | 314° |
| 2026-05-05 21:55 | 54.56056 | -6.45839 | 3405 ft | 217 kts | 312° |
| 2026-05-05 21:55 | 54.57060 | -6.47666 | 3326 ft | 206 kts | 324° |
| 2026-05-05 21:55 | 54.58216 | -6.48380 | 3164 ft | 199 kts | 4° |
| 2026-05-05 21:55 | 54.59381 | -6.47449 | 3104 ft | 182 kts | 51° |
| 2026-05-05 21:56 | 54.59878 | -6.45507 | 3014 ft | 166 kts | 76° |
| 2026-05-05 21:56 | 54.60145 | -6.43653 | 2749 ft | 164 kts | 76° |
| 2026-05-05 21:56 | 54.60479 | -6.41706 | 2405 ft | 165 kts | 72° |
| 2026-05-05 21:56 | 54.60877 | -6.39844 | 2206 ft | 160 kts | 69° |
| 2026-05-05 21:57 | 54.61294 | -6.38113 | 1993 ft | 144 kts | 67° |
| 2026-05-05 21:57 | 54.61675 | -6.36626 | 1790 ft | 130 kts | 66° |
| 2026-05-05 21:57 | 54.62056 | -6.35188 | 1628 ft | 128 kts | 65° |
| 2026-05-05 21:57 | 54.62444 | -6.33739 | 1473 ft | 135 kts | 65° |
| 2026-05-05 21:58 | 54.62869 | -6.32165 | 1301 ft | 148 kts | 65° |
| 2026-05-05 21:58 | 54.63287 | -6.30615 | 1075 ft | 135 kts | 65° |
| 2026-05-05 21:58 | 54.63671 | -6.29199 | 895 ft | 127 kts | 65° |
| 2026-05-05 21:58 | 54.64017 | -6.27924 | 749 ft | 127 kts | 65° |
| 2026-05-05 21:59 | 54.64396 | -6.26556 | 640 ft | 127 kts | 64° |
| 2026-05-05 21:59 | 54.64776 | -6.25213 | 503 ft | 126 kts | 65° |
| 2026-05-05 21:59 | 54.65137 | -6.23860 | 346 ft | 126 kts | 65° |
| 2026-05-05 21:59 | 54.65477 | -6.22576 | 278 ft | 117 kts | 66° |
| 2026-05-05 22:00 | 54.65737 | -6.21623 | 277 ft | 63 kts | 65° |
| 2026-05-05 22:00 | 54.65888 | -6.21080 | 277 ft | 49 kts | 66° |
| 2026-05-05 22:00 | 54.66009 | -6.20602 | 277 ft | 46 kts | 66° |
| 2026-05-05 22:00 | 54.66157 | -6.20055 | 277 ft | 48 kts | 63° |
| 2026-05-05 22:01 | 54.66270 | -6.19673 | 277 ft | 19 kts | 36° |
| 2026-05-05 22:01 | 54.66386 | -6.19747 | 277 ft | 17 kts | 298° |
| 2026-05-05 22:01 | 54.66373 | -6.19949 | 277 ft | 16 kts | 246° |
| 2026-05-05 22:01 | 54.66319 | -6.20133 | 277 ft | 16 kts | 243° |
| 2026-05-05 22:02 | 54.66273 | -6.20308 | 276 ft | 17 kts | 248° |
| 2026-05-05 22:02 | 54.66225 | -6.20506 | 277 ft | 17 kts | 244° |
| 2026-05-05 22:02 | 54.66169 | -6.20702 | 277 ft | 18 kts | 245° |
| 2026-05-05 22:02 | 54.66116 | -6.20906 | 277 ft | 18 kts | 250° |
| 2026-05-05 22:03 | 54.66065 | -6.21097 | 276 ft | 18 kts | 243° |
| 2026-05-05 22:03 | 54.66016 | -6.21278 | 277 ft | 15 kts | 246° |
| 2026-05-05 22:03 | 54.66009 | -6.21305 | 276 ft | 0 kts | 246° |
| 2026-05-05 22:03 | 54.66005 | -6.21323 | 277 ft | 10 kts | 246° |
| 2026-05-05 22:04 | 54.65929 | -6.21595 | 277 ft | 13 kts | 245° |
| 2026-05-05 22:04 | 54.65873 | -6.21803 | 276 ft | 14 kts | 245° |
| 2026-05-05 22:04 | 54.65841 | -6.21963 | 277 ft | 13 kts | 301° |
| 2026-05-05 22:04 | 54.65915 | -6.22061 | 277 ft | 13 kts | 339° |
| 2026-05-05 22:05 | 54.65974 | -6.21991 | 277 ft | 5 kts | 57° |
| 2026-05-05 22:05 | 54.65987 | -6.21948 | 276 ft | 0 kts | 64° |